LFBI/PIS METAR and TAF weather

Enter ICAO airport designator
Station Type Date Time Source
LFBI METAR 2020/06/05 12:30 UTC NOAA

LFBI 051230Z AUTO 25015G26KT 220V290 9999 BKN022 BKN027 BKN033 19/13 Q1005 TEMPO 26012KT


Station Type Date Time Source
LFBI Decoded METAR 2020/06/05 12:30 UTC NOAA

Poitiers, France (LFBI) 46-35N 000-19E 120M
Jun 05, 2020 - 08:30 AM EDT / 2020.06.05 1230 UTC
Wind: from the WSW (250 degrees) at 17 MPH (15 KT) gusting to 30 MPH (26 KT) (direction variable):0
Visibility: greater than 7 mile(s):0
Sky conditions: mostly cloudy
Temperature: 66 F (19 C)
Dew Point: 55 F (13 C)
Relative Humidity: 68%
Pressure (altimeter): 29.68 in. Hg (1005 hPa)
ob: LFBI 051230Z AUTO 25015G26KT 220V290 9999 BKN022 BKN027 BKN033 19/13 Q1005 TEMPO 26012KT
cycle: 12

Station Type Date Time Source
LFBI TAF 2020/06/05 12:21 UTC NOAA

TAF LFBI 051100Z 0512/0612 26012KT 9999 BKN022
TEMPO 0514/0521 25017G27KT
TEMPO 0521/0610 4000 -SHRA

Example: see airport list